createdAt,value
2022-10-19T00:02:13.457Z,14.90
2022-10-19T00:05:55.825Z,14.90
2022-10-19T00:09:37.799Z,14.90
2022-10-19T00:13:19.880Z,14.90
2022-10-19T00:17:01.855Z,14.80
2022-10-19T00:20:43.821Z,14.90
2022-10-19T00:24:25.752Z,14.90
2022-10-19T00:28:07.754Z,14.90
2022-10-19T00:31:51.003Z,14.90
2022-10-19T00:35:32.955Z,14.90
2022-10-19T00:39:17.764Z,14.80
2022-10-19T00:42:59.747Z,14.80
2022-10-19T00:46:44.479Z,14.80
2022-10-19T00:50:26.473Z,14.80
2022-10-19T00:54:09.665Z,14.80
2022-10-19T01:01:38.918Z,14.80
2022-10-19T01:05:21.406Z,14.90
2022-10-19T01:09:03.609Z,14.90
2022-10-19T01:12:57.495Z,14.90
2022-10-19T01:16:58.295Z,14.80
2022-10-19T01:20:58.709Z,14.90
2022-10-19T01:25:27.549Z,14.90
2022-10-19T01:29:31.140Z,14.80
2022-10-19T01:33:16.022Z,14.80
2022-10-19T01:37:33.856Z,14.80
2022-10-19T01:41:21.738Z,14.80
2022-10-19T01:45:10.496Z,14.80
2022-10-19T01:49:03.000Z,14.80
2022-10-19T01:52:44.950Z,14.80
2022-10-19T01:56:28.460Z,14.80
2022-10-19T02:00:12.580Z,14.80
2022-10-19T02:03:55.376Z,14.80
2022-10-19T02:07:39.033Z,14.70
2022-10-19T02:11:22.552Z,14.70
2022-10-19T02:15:14.731Z,14.80
2022-10-19T02:18:59.407Z,14.80
2022-10-19T02:22:41.541Z,14.80
2022-10-19T02:26:23.598Z,14.80
2022-10-19T02:30:06.972Z,14.70
2022-10-19T02:33:49.040Z,14.60
2022-10-19T02:37:31.145Z,14.60
2022-10-19T02:41:29.552Z,14.50
2022-10-19T02:45:19.723Z,14.40
2022-10-19T02:49:03.931Z,14.40
2022-10-19T02:52:45.878Z,14.30
2022-10-19T02:56:27.875Z,14.30
2022-10-19T03:00:10.719Z,14.30
2022-10-19T03:03:52.853Z,14.30
2022-10-19T03:07:35.182Z,14.30
2022-10-19T03:11:17.332Z,14.30
2022-10-19T03:14:59.263Z,14.30
2022-10-19T03:18:41.442Z,14.30
2022-10-19T03:22:23.340Z,14.30
2022-10-19T03:26:08.763Z,14.30
2022-10-19T03:29:53.405Z,14.30
2022-10-19T03:33:35.329Z,14.30
2022-10-19T03:37:17.243Z,14.20
2022-10-19T03:40:59.183Z,14.20
2022-10-19T03:44:42.444Z,14.20
2022-10-19T03:48:24.450Z,14.30
2022-10-19T03:52:06.544Z,14.30
2022-10-19T03:55:48.429Z,14.30
2022-10-19T03:59:30.474Z,14.20
2022-10-19T04:03:12.417Z,14.20
2022-10-19T04:06:54.407Z,14.20
2022-10-19T04:10:36.325Z,14.20
2022-10-19T04:14:31.728Z,14.20
2022-10-19T04:18:15.338Z,14.20
2022-10-19T04:21:57.608Z,14.10
2022-10-19T04:25:39.609Z,14.10
2022-10-19T04:29:25.107Z,14.10
2022-10-19T04:33:10.126Z,14.20
2022-10-19T04:36:53.356Z,14.20
2022-10-19T04:40:36.580Z,14.20
2022-10-19T04:44:18.606Z,14.20
2022-10-19T04:48:01.004Z,14.30
2022-10-19T04:51:42.921Z,14.30
2022-10-19T04:55:24.834Z,14.30
2022-10-19T04:59:06.919Z,14.30
2022-10-19T05:02:48.991Z,14.30
2022-10-19T05:06:32.137Z,14.30
2022-10-19T05:10:14.229Z,14.30
2022-10-19T05:13:57.263Z,14.30
2022-10-19T05:17:41.313Z,14.20
2022-10-19T05:21:23.641Z,14.20
2022-10-19T05:25:07.062Z,14.10
2022-10-19T05:28:51.063Z,14.10
2022-10-19T05:32:33.119Z,14.10
2022-10-19T05:36:25.609Z,14.10
2022-10-19T05:40:08.334Z,14.10
2022-10-19T05:43:55.676Z,14.20
2022-10-19T05:47:37.802Z,14.20
2022-10-19T05:51:21.586Z,14.20
2022-10-19T05:55:03.894Z,14.20
2022-10-19T05:58:46.202Z,14.20
2022-10-19T06:02:28.212Z,14.20
2022-10-19T06:06:10.371Z,14.20
2022-10-19T06:09:52.333Z,14.20
2022-10-19T06:13:34.392Z,14.30
2022-10-19T06:17:16.483Z,14.30
2022-10-19T06:21:12.553Z,14.20
2022-10-19T06:24:54.628Z,14.30
2022-10-19T06:28:39.197Z,14.30
2022-10-19T06:32:21.518Z,14.30
2022-10-19T06:36:12.375Z,14.20
2022-10-19T06:39:54.412Z,14.30
2022-10-19T06:43:36.686Z,14.30
2022-10-19T06:47:18.649Z,14.30
2022-10-19T06:51:05.898Z,14.30
2022-10-19T06:54:48.080Z,14.30
2022-10-19T06:58:31.015Z,14.30
2022-10-19T07:02:13.012Z,14.30
2022-10-19T07:06:03.321Z,14.30
2022-10-19T07:09:45.379Z,14.40
2022-10-19T07:13:28.560Z,14.40
2022-10-19T07:17:11.762Z,14.40
2022-10-19T07:21:02.208Z,14.40
2022-10-19T07:24:44.227Z,14.40
2022-10-19T07:28:26.364Z,14.40
2022-10-19T07:32:08.415Z,14.50
2022-10-19T07:35:50.574Z,14.40
2022-10-19T07:39:32.618Z,14.50
2022-10-19T07:43:14.655Z,14.50
2022-10-19T07:46:56.563Z,14.50
2022-10-19T07:50:38.476Z,14.60
2022-10-19T07:54:21.415Z,14.60
2022-10-19T07:58:03.323Z,14.60
2022-10-19T08:01:45.374Z,14.70
2022-10-19T08:05:27.492Z,14.70
2022-10-19T08:09:11.318Z,14.80
2022-10-19T08:12:57.617Z,14.70
2022-10-19T08:16:41.773Z,14.80
2022-10-19T08:20:23.684Z,14.80
2022-10-19T08:24:07.038Z,14.90
2022-10-19T08:27:48.938Z,14.90
2022-10-19T08:31:30.874Z,15.00
2022-10-19T08:35:12.871Z,15.10
2022-10-19T08:38:54.827Z,15.20
2022-10-19T08:43:02.454Z,15.20
2022-10-19T08:47:23.236Z,15.30
2022-10-19T08:51:06.548Z,15.40
2022-10-19T08:54:54.613Z,15.40
2022-10-19T08:58:45.749Z,15.50
2022-10-19T09:02:45.930Z,15.60
2022-10-19T09:06:51.643Z,15.70
2022-10-19T09:10:40.511Z,15.80
2022-10-19T09:14:28.199Z,15.90
2022-10-19T09:18:27.943Z,16.10
2022-10-19T09:22:20.733Z,16.30
2022-10-19T09:26:05.636Z,16.30
2022-10-19T09:30:03.867Z,16.40
2022-10-19T09:33:52.197Z,16.50
2022-10-19T09:37:40.528Z,16.40
2022-10-19T09:41:24.409Z,16.40
2022-10-19T09:45:23.827Z,16.50
2022-10-19T09:49:06.338Z,16.60
2022-10-19T09:53:12.163Z,16.70
2022-10-19T09:56:56.092Z,16.60
2022-10-19T10:00:43.660Z,16.70
2022-10-19T10:04:25.630Z,16.80
2022-10-19T10:08:15.762Z,17.00
2022-10-19T10:12:02.655Z,17.10
2022-10-19T10:15:49.111Z,17.40
2022-10-19T10:19:33.372Z,17.40
2022-10-19T10:23:24.788Z,17.40
2022-10-19T10:27:06.875Z,17.40
2022-10-19T10:31:05.007Z,17.30
2022-10-19T10:34:54.826Z,17.10
2022-10-19T10:38:51.884Z,17.30
2022-10-19T10:42:41.061Z,17.40
2022-10-19T10:46:27.055Z,17.50
2022-10-19T10:50:30.742Z,17.70
2022-10-19T10:54:33.861Z,17.70
2022-10-19T10:58:25.459Z,17.90
2022-10-19T11:06:14.698Z,18.20
2022-10-19T11:10:06.841Z,18.30
2022-10-19T11:14:08.504Z,18.20
2022-10-19T11:18:20.211Z,18.30
2022-10-19T11:22:16.961Z,18.40
2022-10-19T11:26:01.941Z,18.60
2022-10-19T11:29:50.905Z,18.70
2022-10-19T11:37:45.518Z,19.20
2022-10-19T11:41:45.143Z,19.40
2022-10-19T11:45:50.708Z,19.40
2022-10-19T11:49:43.416Z,19.60
2022-10-19T11:53:29.684Z,19.80
2022-10-19T11:57:24.061Z,19.80
2022-10-19T12:01:17.390Z,19.90
2022-10-19T12:05:01.515Z,20.10
2022-10-19T12:09:12.278Z,20.20
2022-10-19T12:13:01.191Z,20.30
2022-10-19T12:16:47.708Z,20.20
2022-10-19T12:20:43.286Z,20.20
2022-10-19T12:24:26.652Z,20.40
2022-10-19T12:28:18.869Z,20.50
2022-10-19T12:32:03.188Z,20.80
2022-10-19T12:36:00.688Z,21.30
2022-10-19T12:39:49.974Z,21.90
2022-10-19T12:43:54.505Z,22.10
2022-10-19T12:47:36.714Z,22.30
2022-10-19T12:51:19.020Z,22.40
2022-10-19T12:55:16.122Z,22.30
2022-10-19T12:59:01.600Z,22.00
2022-10-19T13:02:44.436Z,21.80
2022-10-19T13:06:26.359Z,21.90
2022-10-19T13:10:21.054Z,22.20
2022-10-19T13:14:27.636Z,22.60
2022-10-19T13:18:14.092Z,22.80
2022-10-19T13:22:01.937Z,22.90
2022-10-19T13:25:44.338Z,23.00
2022-10-19T13:29:27.818Z,23.20
2022-10-19T13:33:24.957Z,23.50
2022-10-19T13:37:13.333Z,23.70
2022-10-19T13:40:55.188Z,23.80
2022-10-19T13:44:38.945Z,23.80
2022-10-19T13:48:52.811Z,23.80
2022-10-19T13:52:40.695Z,23.70
2022-10-19T13:56:31.109Z,23.50
2022-10-19T14:00:18.079Z,23.60
2022-10-19T14:04:21.827Z,23.70
2022-10-19T14:08:15.717Z,24.00
2022-10-19T14:12:08.278Z,24.20
2022-10-19T14:15:55.182Z,24.30
2022-10-19T14:19:46.447Z,24.60
2022-10-19T14:23:34.587Z,24.80
2022-10-19T14:27:21.438Z,24.90
2022-10-19T14:31:09.691Z,24.60
2022-10-19T14:34:52.371Z,24.70
2022-10-19T14:38:37.281Z,24.80
2022-10-19T14:42:19.202Z,24.60
2022-10-19T14:46:07.265Z,24.30
2022-10-19T14:49:50.387Z,23.80
2022-10-19T14:53:52.889Z,23.20
2022-10-19T14:57:38.171Z,22.70
2022-10-19T15:01:20.913Z,22.60
2022-10-19T15:05:05.600Z,22.50
2022-10-19T15:08:51.939Z,22.30
2022-10-19T15:12:41.953Z,22.20
2022-10-19T15:16:32.978Z,22.00
2022-10-19T15:20:43.966Z,21.90
2022-10-19T15:24:37.066Z,22.10
2022-10-19T15:28:21.740Z,22.30
2022-10-19T15:32:21.598Z,22.40
2022-10-19T15:36:09.480Z,22.30
2022-10-19T15:39:52.589Z,22.10
2022-10-19T15:43:43.074Z,22.00
2022-10-19T15:47:25.391Z,21.90
2022-10-19T15:51:25.846Z,21.90
2022-10-19T15:55:07.847Z,21.70
2022-10-19T15:58:51.556Z,21.60
2022-10-19T16:02:33.472Z,21.40
2022-10-19T16:06:17.226Z,21.30
2022-10-19T16:09:59.430Z,21.10
2022-10-19T16:13:41.768Z,20.90
2022-10-19T16:17:24.080Z,20.90
2022-10-19T16:21:06.229Z,20.70
2022-10-19T16:24:48.135Z,20.50
2022-10-19T16:28:30.080Z,20.40
2022-10-19T16:32:12.016Z,20.30
2022-10-19T16:35:53.893Z,20.10
2022-10-19T16:39:35.810Z,20.00
2022-10-19T16:43:17.757Z,19.90
2022-10-19T16:47:00.016Z,19.70
2022-10-19T16:54:24.082Z,19.40
2022-10-19T16:58:06.726Z,19.40
2022-10-19T17:01:48.838Z,19.30
2022-10-19T17:05:30.911Z,19.20
2022-10-19T17:13:14.791Z,19.10
2022-10-19T17:16:56.713Z,19.10
2022-10-19T17:20:38.659Z,19.00
2022-10-19T17:24:22.262Z,19.00
2022-10-19T17:28:04.682Z,18.90
2022-10-19T17:31:47.030Z,18.90
2022-10-19T17:35:29.071Z,18.80
2022-10-19T17:39:19.685Z,18.70
2022-10-19T17:43:01.541Z,18.70
2022-10-19T17:46:43.789Z,18.70
2022-10-19T17:50:25.720Z,18.60
2022-10-19T17:54:11.548Z,18.60
2022-10-19T17:57:53.641Z,18.60
2022-10-19T18:01:36.355Z,18.60
2022-10-19T18:05:18.290Z,18.60
2022-10-19T18:09:02.360Z,18.40
2022-10-19T18:12:45.303Z,18.30
2022-10-19T18:16:35.394Z,18.10
2022-10-19T18:20:17.413Z,18.00
2022-10-19T18:24:01.797Z,17.90
2022-10-19T18:27:43.766Z,17.80
2022-10-19T18:31:29.568Z,17.70
2022-10-19T18:35:11.958Z,17.60
2022-10-19T18:38:55.973Z,17.50
2022-10-19T18:42:38.018Z,17.50
2022-10-19T18:46:22.099Z,17.40
2022-10-19T18:50:04.220Z,17.40
2022-10-19T18:53:47.446Z,17.40
2022-10-19T18:57:31.707Z,17.40
2022-10-19T19:01:26.766Z,17.30
2022-10-19T19:05:09.124Z,17.30
2022-10-19T19:08:51.435Z,17.30
2022-10-19T19:12:33.789Z,17.30
2022-10-19T19:16:16.100Z,17.40
2022-10-19T19:19:57.972Z,17.40
2022-10-19T19:23:39.867Z,17.40
2022-10-19T19:27:22.889Z,17.40
2022-10-19T19:31:06.326Z,17.40
2022-10-19T19:34:52.424Z,17.50
2022-10-19T19:38:36.734Z,17.50
2022-10-19T19:42:18.809Z,17.50
2022-10-19T19:46:06.240Z,17.40
2022-10-19T19:49:52.085Z,17.40
2022-10-19T19:53:34.036Z,17.50
2022-10-19T19:57:16.002Z,17.50
2022-10-19T20:00:57.967Z,17.40
2022-10-19T20:04:39.980Z,17.40
2022-10-19T20:08:22.072Z,17.40
2022-10-19T20:12:04.053Z,17.40
2022-10-19T20:15:46.003Z,17.50
2022-10-19T20:19:27.974Z,17.40
2022-10-19T20:23:09.911Z,17.40
2022-10-19T20:26:51.968Z,17.40
2022-10-19T20:30:33.921Z,17.40
2022-10-19T20:34:17.690Z,17.40
2022-10-19T20:38:03.855Z,17.40
2022-10-19T20:41:45.754Z,17.40
2022-10-19T20:45:28.677Z,17.40
2022-10-19T20:49:12.154Z,17.40
2022-10-19T20:52:54.040Z,17.40
2022-10-19T20:56:37.559Z,17.40
2022-10-19T21:00:19.624Z,17.50
2022-10-19T21:04:04.645Z,17.50
2022-10-19T21:07:46.594Z,17.60
2022-10-19T21:11:32.367Z,17.60
2022-10-19T21:15:14.301Z,17.60
2022-10-19T21:18:57.314Z,17.60
2022-10-19T21:22:41.416Z,17.60
2022-10-19T21:26:26.395Z,17.60
2022-10-19T21:30:08.893Z,17.70
2022-10-19T21:33:51.837Z,17.70
2022-10-19T21:37:34.208Z,17.70
2022-10-19T21:41:22.247Z,17.80
2022-10-19T21:45:30.316Z,17.70
2022-10-19T21:49:12.916Z,17.70
2022-10-19T21:52:55.033Z,17.80
2022-10-19T21:56:37.203Z,17.80
2022-10-19T22:00:19.203Z,17.80
2022-10-19T22:04:03.701Z,17.80
2022-10-19T22:07:45.646Z,17.80
2022-10-19T22:11:28.086Z,17.80
2022-10-19T22:15:10.549Z,17.80
2022-10-19T22:18:53.258Z,17.90
2022-10-19T22:22:35.417Z,17.80
2022-10-19T22:26:24.031Z,17.90
2022-10-19T22:30:06.445Z,17.90
2022-10-19T22:33:48.885Z,17.90
2022-10-19T22:37:30.829Z,17.90
2022-10-19T22:41:12.789Z,17.90
2022-10-19T22:44:55.590Z,17.90
2022-10-19T22:48:37.557Z,17.80
2022-10-19T22:52:19.512Z,17.70
2022-10-19T22:56:01.873Z,17.70
2022-10-19T22:59:44.012Z,17.70
2022-10-19T23:03:25.941Z,17.60
2022-10-19T23:07:07.942Z,17.70
2022-10-19T23:10:49.891Z,17.70
2022-10-19T23:14:32.081Z,17.80
2022-10-19T23:18:14.279Z,17.80
2022-10-19T23:21:56.522Z,17.80
2022-10-19T23:25:38.427Z,17.90
2022-10-19T23:29:20.395Z,17.90
2022-10-19T23:33:02.470Z,17.90
2022-10-19T23:36:44.409Z,17.90
2022-10-19T23:40:26.321Z,17.90
2022-10-19T23:44:09.430Z,17.80
2022-10-19T23:47:51.344Z,17.80
2022-10-19T23:51:33.382Z,17.90
2022-10-19T23:55:15.370Z,17.90
2022-10-19T23:58:57.342Z,17.90
